Time;durP1;ratioP1;P1;durP2;ratioP2;P2;SDS_P1;SDS_P2;PMS_P1;PMS_P2;Temp;Humidity;BMP_temperature;BMP_pressure;BME280_temperature;BME280_humidity;BME280_pressure;Samples;Min_cycle;Max_cycle;Signal;HPM_P1;HPM_P2
2021/08/03 04:56:20;;;;;;;;;;;;;;;27.16;48.47;99953.48;1856922;77;20146;-67
2021/08/03 04:58:47;;;;;;;;;;;;;;;27.29;47.89;99960.75;1828935;78;20085;-67
2021/08/03 05:01:18;;;;;;;;;;;;;;;27.46;47.42;99962.61;1829076;78;21228;-68
2021/08/03 05:03:45;;;;;;;;;;;;;;;27.67;46.88;99961.20;1828804;78;20129;-67
2021/08/03 05:06:13;;;;;;;;;;;;;;;27.85;46.44;99960.16;1821878;78;20098;-68
2021/08/03 05:08:40;;;;;;;;;;;;;;;28.06;46.00;99959.70;1816348;78;20110;-66
2021/08/03 05:11:07;;;;;;;;;;;;;;;28.26;45.32;99957.95;1804779;78;20399;-65
2021/08/03 05:13:34;;;;;;;;;;;;;;;28.48;44.57;99964.77;1812760;78;20960;-65
2021/08/03 05:16:03;;;;;;;;;;;;;;;28.64;44.12;99959.55;1824344;78;20085;-64
2021/08/03 05:18:31;;;;;;;;;;;;;;;28.76;43.89;99967.30;1828687;78;20078;-68
2021/08/03 05:20:59;;;;;;;;;;;;;;;28.90;43.53;99962.77;1828959;78;20102;-66
2021/08/03 05:23:26;;;;;;;;;;;;;;;29.01;43.09;99960.81;1830827;78;20115;-68
2021/08/03 05:25:53;;;;;;;;;;;;;;;29.12;42.87;99957.51;1832300;78;21809;-67
2021/08/03 05:28:21;;;;;;;;;;;;;;;29.28;42.69;99964.79;1828315;78;20093;-69
2021/08/03 05:30:49;;;;;;;;;;;;;;;29.37;42.47;99961.68;1829027;78;20082;-67
2021/08/03 05:33:20;;;;;;;;;;;;;;;29.46;42.24;99962.31;1829164;78;20086;-64
2021/08/03 05:35:52;;;;;;;;;;;;;;;29.63;41.70;99959.98;1828940;78;20098;-64
2021/08/03 05:38:18;;;;;;;;;;;;;;;29.78;41.27;99959.21;1828949;78;21093;-67
2021/08/03 05:40:47;;;;;;;;;;;;;;;29.84;40.83;99964.56;1823475;78;20073;-67
2021/08/03 05:43:19;;;;;;;;;;;;;;;29.95;40.79;99964.41;1812868;78;20082;-66
2021/08/03 05:45:47;;;;;;;;;;;;;;;30.08;40.46;99964.88;1822887;78;20166;-68
2021/08/03 05:48:15;;;;;;;;;;;;;;;30.19;40.16;99962.86;1818597;78;20440;-69
2021/08/03 05:50:42;;;;;;;;;;;;;;;30.26;40.12;99966.34;1815834;78;20801;-70
2021/08/03 05:53:09;;;;;;;;;;;;;;;30.35;40.04;99958.85;1824056;78;20107;-63
2021/08/03 05:55:36;;;;;;;;;;;;;;;30.43;39.79;99957.22;1821488;78;20135;-69
2021/08/03 05:58:03;;;;;;;;;;;;;;;30.57;39.57;99959.34;1811075;79;20129;-64
2021/08/03 06:00:30;;;;;;;;;;;;;;;30.65;39.37;99963.11;1784039;80;20375;-68
2021/08/03 06:02:57;;;;;;;;;;;;;;;30.77;39.17;99966.23;1797992;79;20838;-68
2021/08/03 06:05:26;;;;;;;;;;;;;;;30.82;39.22;99967.70;1803460;79;20141;-68
2021/08/03 06:07:52;;;;;;;;;;;;;;;30.91;39.24;99965.58;1803554;78;20147;-67
2021/08/03 06:10:19;;;;;;;;;;;;;;;30.99;38.93;99963.95;1812444;78;20125;-65
2021/08/03 06:12:52;;;;;;;;;;;;;;;31.02;39.00;99962.70;1815336;79;20118;-66
2021/08/03 06:15:23;;;;;;;;;;;;;;;31.13;38.71;99962.83;1813478;79;21787;-65
2021/08/03 06:17:53;;;;;;;;;;;;;;;31.20;38.46;99964.61;1815866;79;20094;-67
2021/08/03 06:20:25;;;;;;;;;;;;;;;31.24;38.33;99963.95;1804288;79;20161;-66
2021/08/03 06:22:54;;;;;;;;;;;;;;;31.31;38.06;99968.74;1796759;79;20086;-69
2021/08/03 06:25:21;;;;;;;;;;;;;;;31.39;37.62;99968.45;1821011;78;20111;-74
2021/08/03 06:27:49;;;;;;;;;;;;;;;31.39;37.58;99975.70;1827894;78;21111;-72
2021/08/03 06:30:16;;;;;;;;;;;;;;;31.40;37.35;99980.87;1799817;79;20097;-68
2021/08/03 06:32:44;;;;;;;;;;;;;;;31.44;37.64;99984.77;1796651;79;20102;-67
2021/08/03 06:35:11;;;;;;;;;;;;;;;31.44;37.27;99981.25;1807739;78;20089;-69
2021/08/03 06:37:38;;;;;;;;;;;;;;;31.48;37.02;99990.00;1832207;78;20115;-77
2021/08/03 06:40:06;;;;;;;;;;;;;;;31.50;36.43;99987.91;1832429;78;21028;-66
2021/08/03 06:42:50;;;;;;;;;;;;;;;31.62;36.47;99997.91;1832131;78;20134;-70
2021/08/03 06:45:20;;;;;;;;;;;;;;;31.73;36.28;99993.98;1831044;78;20091;-69
2021/08/03 06:48:06;;;;;;;;;;;;;;;31.70;35.47;99993.09;1782942;80;20096;-74
2021/08/03 06:50:36;;;;;;;;;;;;;;;31.44;36.12;99995.52;1802194;79;20082;-71
2021/08/03 06:53:05;;;;;;;;;;;;;;;31.16;36.80;100004.09;1815320;78;20974;-76
2021/08/03 06:55:34;;;;;;;;;;;;;;;31.13;36.92;100007.22;1819420;78;20344;-75
2021/08/03 06:58:03;;;;;;;;;;;;;;;31.11;36.86;100012.48;1825346;78;20191;-68
2021/08/03 07:00:33;;;;;;;;;;;;;;;31.18;36.46;100017.32;1827141;78;20148;-66
2021/08/03 07:03:00;;;;;;;;;;;;;;;31.25;36.32;100006.47;1814255;78;20702;-65
2021/08/03 07:05:27;;;;;;;;;;;;;;;31.29;36.27;100000.95;1813670;78;21046;-65
2021/08/03 07:07:58;;;;;;;;;;;;;;;31.32;35.46;100007.23;1812553;78;20117;-64
2021/08/03 07:10:25;;;;;;;;;;;;;;;31.39;34.92;100008.00;1798418;78;20115;-66
2021/08/03 07:12:56;;;;;;;;;;;;;;;31.39;35.20;100011.52;1795870;80;20092;-66
2021/08/03 07:15:27;;;;;;;;;;;;;;;31.40;34.89;100009.64;1795842;80;20083;-68
2021/08/03 07:17:54;;;;;;;;;;;;;;;31.39;34.46;100013.37;1814937;78;21162;-67
2021/08/03 07:20:22;;;;;;;;;;;;;;;31.39;34.69;100016.89;1828073;78;20153;-67
2021/08/03 07:22:49;;;;;;;;;;;;;;;31.44;34.69;100019.75;1826833;78;20408;-67
2021/08/03 07:25:19;;;;;;;;;;;;;;;31.52;34.65;100018.64;1826960;78;20108;-67
2021/08/03 07:27:48;;;;;;;;;;;;;;;31.66;34.78;100022.81;1828302;78;20093;-69
2021/08/03 07:30:15;;;;;;;;;;;;;;;31.76;34.85;100025.84;1796749;78;21564;-67
2021/08/03 07:32:43;;;;;;;;;;;;;;;31.79;34.82;100029.97;1828141;78;20086;-66
2021/08/03 07:35:10;;;;;;;;;;;;;;;31.80;34.69;100025.70;1828414;78;20351;-69
2021/08/03 07:37:37;;;;;;;;;;;;;;;31.89;34.16;100029.45;1803037;78;20504;-70
2021/08/03 07:40:05;;;;;;;;;;;;;;;31.95;33.99;100025.86;1815478;78;20120;-72
2021/08/03 07:42:33;;;;;;;;;;;;;;;32.05;33.95;100026.95;1803998;78;21126;-70
2021/08/03 07:45:00;;;;;;;;;;;;;;;32.09;33.91;100023.28;1791793;80;20086;-70
2021/08/03 07:47:27;;;;;;;;;;;;;;;32.14;34.27;100026.94;1791936;78;20392;-67
2021/08/03 07:49:57;;;;;;;;;;;;;;;32.29;33.93;100029.28;1826872;78;20150;-66
2021/08/03 07:52:26;;;;;;;;;;;;;;;32.38;33.73;100023.05;1828242;78;20111;-69
2021/08/03 07:54:56;;;;;;;;;;;;;;;32.44;33.49;100022.93;1828225;78;21502;-67
2021/08/03 07:57:32;;;;;;;;;;;;;;;32.53;32.89;100025.30;1828182;78;20107;-74
2021/08/03 08:00:05;;;;;;;;;;;;;;;32.57;32.50;100031.89;1798317;78;20389;-66
2021/08/03 08:02:32;;;;;;;;;;;;;;;32.40;32.35;100026.31;1801679;78;20086;-67
2021/08/03 08:04:59;;;;;;;;;;;;;;;32.20;33.08;100019.83;1792137;80;20102;-66
2021/08/03 08:07:27;;;;;;;;;;;;;;;32.12;33.49;100021.48;1827532;78;21118;-65
2021/08/03 08:09:54;;;;;;;;;;;;;;;32.15;33.89;100018.33;1831263;78;20178;-70
2021/08/03 08:12:23;;;;;;;;;;;;;;;32.16;33.55;100018.11;1828986;78;20094;-64
2021/08/03 08:14:50;;;;;;;;;;;;;;;32.14;33.63;100018.03;1828141;78;20106;-67
2021/08/03 08:17:16;;;;;;;;;;;;;;;32.25;32.74;100015.95;1826154;78;20434;-64
2021/08/03 08:19:45;;;;;;;;;;;;;;;32.26;32.61;100022.99;1825185;78;20145;-65
2021/08/03 08:22:12;;;;;;;;;;;;;;;32.22;32.71;100020.45;1825924;78;20090;-65
2021/08/03 08:24:39;;;;;;;;;;;;;;;32.19;32.81;100023.56;1827286;78;20133;-70
2021/08/03 08:27:06;;;;;;;;;;;;;;;32.11;32.41;100021.18;1828034;78;20077;-71
2021/08/03 08:29:34;;;;;;;;;;;;;;;31.96;32.15;100019.42;1828352;78;20113;-67
2021/08/03 08:32:01;;;;;;;;;;;;;;;31.72;32.08;100021.95;1825694;78;21982;-72
2021/08/03 08:34:28;;;;;;;;;;;;;;;31.39;32.62;100015.55;1827199;78;20121;-66
2021/08/03 08:36:54;;;;;;;;;;;;;;;31.24;33.98;100018.27;1827899;78;20468;-68
2021/08/03 08:39:22;;;;;;;;;;;;;;;31.35;33.96;100013.52;1807892;78;20446;-67
2021/08/03 08:41:48;;;;;;;;;;;;;;;31.53;33.88;100018.94;1811158;78;20123;-65
2021/08/03 08:44:15;;;;;;;;;;;;;;;31.67;33.07;100019.11;1812646;78;20523;-66
2021/08/03 08:46:42;;;;;;;;;;;;;;;31.82;32.86;100019.56;1809573;78;20078;-65
2021/08/03 08:49:09;;;;;;;;;;;;;;;31.86;32.61;100022.64;1808679;78;20113;-72
2021/08/03 08:51:37;;;;;;;;;;;;;;;31.82;32.81;100019.56;1819772;78;20070;-67
2021/08/03 08:54:06;;;;;;;;;;;;;;;31.92;32.53;100015.53;1812000;78;20093;-67
2021/08/03 08:56:33;;;;;;;;;;;;;;;32.08;32.26;100016.24;1810769;78;21333;-65
2021/08/03 08:59:01;;;;;;;;;;;;;;;32.14;31.92;100020.73;1820701;78;21599;-70
2021/08/03 09:01:28;;;;;;;;;;;;;;;32.13;31.58;100020.43;1798142;78;20401;-69
2021/08/03 09:03:56;;;;;;;;;;;;;;;32.07;31.20;100007.34;1824191;78;20128;-69
2021/08/03 09:06:24;;;;;;;;;;;;;;;31.95;31.74;100011.05;1825880;78;20422;-67
2021/08/03 09:08:52;;;;;;;;;;;;;;;31.81;31.79;100009.02;1791645;80;21542;-67
2021/08/03 09:11:20;;;;;;;;;;;;;;;31.72;31.77;99995.55;1803629;78;20093;-67
2021/08/03 09:13:53;;;;;;;;;;;;;;;31.62;32.00;99996.04;1822239;78;20121;-66
2021/08/03 09:16:25;;;;;;;;;;;;;;;31.51;32.49;100003.53;1827294;78;20145;-66
2021/08/03 09:18:54;;;;;;;;;;;;;;;31.45;32.67;100001.73;1823304;78;20495;-67
2021/08/03 09:21:29;;;;;;;;;;;;;;;31.34;32.38;100005.97;1815886;78;20459;-70
2021/08/03 09:24:00;;;;;;;;;;;;;;;31.23;32.16;100004.52;1821671;78;20086;-69
2021/08/03 09:26:49;;;;;;;;;;;;;;;31.07;32.30;99999.99;1827347;78;20090;-69
2021/08/03 09:29:17;;;;;;;;;;;;;;;30.92;32.25;99999.48;1829423;78;20090;-67
2021/08/03 09:32:00;;;;;;;;;;;;;;;30.67;32.02;99996.80;1822976;78;20105;-66
2021/08/03 09:34:25;;;;;;;;;;;;;;;30.47;31.98;99994.20;1826899;78;21149;-73
2021/08/03 09:36:56;;;;;;;;;;;;;;;30.28;31.80;99987.09;1827870;78;20416;-69
2021/08/03 09:39:43;;;;;;;;;;;;;;;30.05;32.45;99990.81;1828288;78;20404;-70
2021/08/03 09:42:15;;;;;;;;;;;;;;;29.89;32.71;99987.26;1825963;78;20110;-69
2021/08/03 09:44:48;;;;;;;;;;;;;;;29.69;33.16;99989.48;1823379;78;20090;-71
2021/08/03 09:47:15;;;;;;;;;;;;;;;29.55;33.27;99988.41;1817195;78;21700;-69
2021/08/03 09:49:44;;;;;;;;;;;;;;;29.43;32.95;99984.20;1824150;78;20109;-66
2021/08/03 09:52:12;;;;;;;;;;;;;;;29.34;33.33;99987.58;1807180;78;20105;-68
2021/08/03 09:54:40;;;;;;;;;;;;;;;29.27;33.75;99985.42;1823026;78;20094;-68
2021/08/03 09:57:24;;;;;;;;;;;;;;;29.23;33.15;99982.02;1825684;78;20103;-68
2021/08/03 09:59:53;;;;;;;;;;;;;;;29.11;33.28;99979.17;1809312;78;20087;-69
2021/08/03 10:02:24;;;;;;;;;;;;;;;29.01;33.40;99983.59;1792970;78;20126;-68
2021/08/03 10:04:52;;;;;;;;;;;;;;;28.89;33.38;99979.88;1812384;78;20117;-68
2021/08/03 10:07:20;;;;;;;;;;;;;;;28.78;33.61;99984.52;1815054;79;20324;-68
2021/08/03 10:09:51;;;;;;;;;;;;;;;28.70;33.91;99982.02;1807765;79;20089;-68
2021/08/03 10:12:18;;;;;;;;;;;;;;;28.65;34.04;99978.62;1816047;79;21784;-70
2021/08/03 10:14:45;;;;;;;;;;;;;;;28.63;33.90;99977.17;1815269;79;20161;-67
2021/08/03 10:17:15;;;;;;;;;;;;;;;28.57;33.77;99974.78;1815624;79;20094;-67
2021/08/03 10:19:44;;;;;;;;;;;;;;;28.48;34.08;99978.17;1815380;79;20066;-66
2021/08/03 10:22:20;;;;;;;;;;;;;;;28.41;34.62;99971.97;1815856;78;20357;-69
2021/08/03 10:24:56;;;;;;;;;;;;;;;28.39;33.94;99977.25;1815235;79;21113;-68
2021/08/03 10:27:23;;;;;;;;;;;;;;;28.34;34.27;99971.67;1815322;79;20083;-68
2021/08/03 10:29:54;;;;;;;;;;;;;;;28.23;34.13;99975.75;1815527;79;20082;-67
2021/08/03 10:32:44;;;;;;;;;;;;;;;28.15;33.86;99974.05;1815722;78;20102;-67
2021/08/03 10:35:15;;;;;;;;;;;;;;;28.09;34.15;99978.04;1815461;79;20090;-66
2021/08/03 10:38:02;;;;;;;;;;;;;;;28.03;34.87;99977.50;1815484;79;21090;-69
2021/08/03 10:51:57;;;;;;;;;;;;;;;28.29;35.40;99962.91;1812145;79;20245;-68
2021/08/03 10:54:24;;;;;;;;;;;;;;;28.36;35.35;99963.74;1797433;79;20087;-70
2021/08/03 10:56:58;;;;;;;;;;;;;;;28.40;35.54;99968.16;1753817;79;21231;-67
2021/08/03 10:59:39;;;;;;;;;;;;;;;28.42;35.14;99968.77;1818970;79;20086;-66
2021/08/03 11:02:09;;;;;;;;;;;;;;;28.41;35.38;99975.16;1818395;79;20375;-69
2021/08/03 11:04:49;;;;;;;;;;;;;;;28.33;35.19;99972.18;1807447;77;20085;-70
2021/08/03 11:07:32;;;;;;;;;;;;;;;28.23;35.19;99970.91;1774160;80;20091;-68
2021/08/03 11:10:03;;;;;;;;;;;;;;;28.11;35.54;99974.65;1736202;82;21129;-68
2021/08/03 11:12:44;;;;;;;;;;;;;;;27.99;35.45;99969.59;1753702;80;20311;-68
2021/08/03 11:15:26;;;;;;;;;;;;;;;27.87;35.87;99974.16;1753816;81;20082;-70
2021/08/03 11:18:11;;;;;;;;;;;;;;;27.76;35.66;99968.03;1747279;80;20183;-69
2021/08/03 11:20:46;;;;;;;;;;;;;;;27.72;35.86;99973.47;1755599;81;20111;-65
2021/08/03 11:23:14;;;;;;;;;;;;;;;27.76;35.75;99968.55;1755788;80;21787;-67
2021/08/03 11:25:42;;;;;;;;;;;;;;;27.77;35.63;99962.17;1740848;81;20114;-72
2021/08/03 11:28:18;;;;;;;;;;;;;;;27.78;35.50;99962.48;1760385;81;20140;-72
2021/08/03 11:30:45;;;;;;;;;;;;;;;27.73;35.64;99959.58;1760961;81;20073;-69
2021/08/03 11:33:13;;;;;;;;;;;;;;;27.69;35.26;99957.81;1759156;81;20122;-67
2021/08/03 11:35:39;;;;;;;;;;;;;;;27.67;35.41;99955.02;1767158;81;21579;-70
2021/08/03 11:38:09;;;;;;;;;;;;;;;27.69;35.21;99961.83;1754291;81;20090;-65
2021/08/03 11:40:36;;;;;;;;;;;;;;;27.67;35.50;99960.37;1750323;80;20448;-68
2021/08/03 11:43:04;;;;;;;;;;;;;;;27.67;35.26;99962.53;1742801;81;20119;-65
2021/08/03 11:45:31;;;;;;;;;;;;;;;27.63;35.50;99957.77;1741960;81;20115;-65
2021/08/03 11:48:00;;;;;;;;;;;;;;;27.59;35.18;99955.20;1744095;80;21210;-64
2021/08/03 11:50:37;;;;;;;;;;;;;;;27.54;35.12;99951.75;1757973;80;20424;-67
2021/08/03 11:53:08;;;;;;;;;;;;;;;27.48;35.44;99951.20;1754743;81;20071;-68
2021/08/03 11:55:36;;;;;;;;;;;;;;;27.45;35.60;99959.62;1744583;81;20084;-67
2021/08/03 11:58:10;;;;;;;;;;;;;;;27.48;35.39;99965.91;1683202;82;20090;-68
2021/08/03 12:00:43;;;;;;;;;;;;;;;27.57;35.17;99964.73;1720592;81;20094;-67
2021/08/03 12:03:10;;;;;;;;;;;;;;;27.71;34.97;99952.27;1763028;80;20459;-66
2021/08/03 12:05:40;;;;;;;;;;;;;;;27.88;35.10;99957.08;1764435;81;20158;-66
2021/08/03 12:08:14;;;;;;;;;;;;;;;28.06;34.52;99958.36;1708702;82;20085;-70
2021/08/03 12:10:44;;;;;;;;;;;;;;;28.21;34.39;99949.69;1746592;81;20110;-71
2021/08/03 12:13:35;;;;;;;;;;;;;;;28.32;33.61;99957.66;1766665;81;21309;-65
2021/08/03 12:16:07;;;;;;;;;;;;;;;28.40;33.61;99949.41;1729775;83;20096;-67
2021/08/03 12:18:42;;;;;;;;;;;;;;;28.48;33.43;99955.40;1689978;82;20103;-70
2021/08/03 12:21:12;;;;;;;;;;;;;;;28.52;33.13;99951.28;1726793;81;20110;-74
2021/08/03 12:23:43;;;;;;;;;;;;;;;28.57;33.26;99949.34;1736074;82;20112;-68
2021/08/03 12:26:23;;;;;;;;;;;;;;;28.60;33.06;99944.91;1757856;80;21085;-68
2021/08/03 12:28:59;;;;;;;;;;;;;;;28.61;33.02;99953.77;1740032;81;20121;-70
2021/08/03 12:31:53;;;;;;;;;;;;;;;28.57;33.21;99948.00;1719175;81;20093;-70
2021/08/03 12:34:19;;;;;;;;;;;;;;;28.52;32.95;99953.14;1762433;81;20074;-65
2021/08/03 12:36:54;;;;;;;;;;;;;;;28.44;33.13;99951.48;1766025;81;20082;-68
2021/08/03 12:39:36;;;;;;;;;;;;;;;28.38;33.54;99962.20;1725015;82;21795;-67
2021/08/03 12:42:16;;;;;;;;;;;;;;;28.32;33.89;99958.48;1755019;81;20161;-69
2021/08/03 12:44:59;;;;;;;;;;;;;;;28.27;33.70;99962.79;1757898;81;20114;-65
2021/08/03 12:47:28;;;;;;;;;;;;;;;28.18;33.82;99970.97;1745522;81;20132;-69
2021/08/03 12:50:06;;;;;;;;;;;;;;;28.09;33.99;99973.51;1751101;80;20140;-70
2021/08/03 12:52:36;;;;;;;;;;;;;;;27.98;34.27;99977.30;1757268;81;21509;-67
2021/08/03 12:55:10;;;;;;;;;;;;;;;27.81;34.45;99987.00;1709636;81;20091;-64
2021/08/03 12:57:48;;;;;;;;;;;;;;;27.61;35.10;100010.13;1749332;81;20392;-64
2021/08/03 13:00:33;;;;;;;;;;;;;;;27.38;38.01;100014.91;1754877;81;20114;-68
2021/08/03 13:03:01;;;;;;;;;;;;;;;26.97;41.75;100055.71;1755612;81;20106;-68
2021/08/03 13:05:28;;;;;;;;;;;;;;;26.30;45.07;100053.31;1762360;81;21822;-66
2021/08/03 13:07:57;;;;;;;;;;;;;;;25.73;47.39;100064.66;1759252;81;20266;-67
2021/08/03 13:10:26;;;;;;;;;;;;;;;25.20;49.26;100072.30;1755462;81;20143;-69
2021/08/03 13:12:55;;;;;;;;;;;;;;;24.70;51.05;100077.66;1755123;81;20090;-69
2021/08/03 13:15:22;;;;;;;;;;;;;;;24.35;53.03;100074.20;1756093;81;20126;-67
2021/08/03 13:17:49;;;;;;;;;;;;;;;24.05;55.18;100069.12;1760677;81;21105;-68
2021/08/03 13:20:16;;;;;;;;;;;;;;;23.82;56.12;100066.38;1758091;81;20086;-71
2021/08/03 13:22:45;;;;;;;;;;;;;;;23.66;56.77;100064.58;1755232;81;20075;-70
2021/08/03 13:25:12;;;;;;;;;;;;;;;23.58;58.21;100061.47;1757901;80;20133;-71
2021/08/03 13:27:39;;;;;;;;;;;;;;;23.59;59.23;100055.11;1759344;81;20118;-70
2021/08/03 13:30:06;;;;;;;;;;;;;;;23.67;60.18;100051.61;1763688;81;21105;-71
2021/08/03 13:32:33;;;;;;;;;;;;;;;23.79;60.59;100042.28;1756241;81;20118;-70
2021/08/03 13:34:59;;;;;;;;;;;;;;;23.90;59.56;100038.44;1756258;81;20083;-69
2021/08/03 13:37:26;;;;;;;;;;;;;;;23.99;59.34;100040.57;1749325;80;20072;-75
2021/08/03 13:39:55;;;;;;;;;;;;;;;24.08;59.72;100044.83;1740172;81;20115;-76
2021/08/03 13:42:22;;;;;;;;;;;;;;;24.11;57.92;100042.66;1757920;81;21130;-73
2021/08/03 13:44:50;;;;;;;;;;;;;;;24.10;56.40;100042.33;1755469;81;20125;-70
2021/08/03 13:47:17;;;;;;;;;;;;;;;24.09;56.85;100039.34;1758152;81;20177;-72
2021/08/03 13:49:45;;;;;;;;;;;;;;;24.10;56.11;100033.52;1759005;81;20441;-70
2021/08/03 13:52:12;;;;;;;;;;;;;;;23.97;55.30;100031.94;1752989;80;20098;-66
2021/08/03 13:54:39;;;;;;;;;;;;;;;23.79;56.61;100027.66;1755800;80;21064;-68
2021/08/03 13:57:05;;;;;;;;;;;;;;;23.75;57.29;100029.50;1745439;81;20073;-69
2021/08/03 13:59:33;;;;;;;;;;;;;;;23.68;57.21;100030.67;1747724;81;20126;-70
2021/08/03 14:02:00;;;;;;;;;;;;;;;23.65;57.34;100031.02;1759190;81;20079;-70
